Terminal Aerodrome Forecast
Issued by NWS

Home | Current Version | Previous Version | Text Only | Print | Product List | Glossary On
Versions: 1 2 3 4 5 6 7 8 9 10 11 12 13 14 15 16 17
000
FTUS43 KMPX 272300
TAFRNH
TAF
KRNH 272332Z 2800/2824 00000KT P6SM SCT040 BKN250
      TEMPO 2810/2813 5SM BR
     FM281400 13007KT P6SM SCT050 OVC120
     FM282000 13007KT 6SM -SHRA BKN020 OVC035=

USA.gov is the U.S. government's official web portal to all federal, state and local government web resources and services.